Pingyin, China
Current Conditions -  °F | °C
As of 8:00 AM on Sunday 26 Oct 2014 (Local Time) from ZSJN Reporting Station
Haze Haze  
Wind Chill: 61°   Ceiling: Unl
Heat Index: 61°   Visibility: 1.3mi
Dew Point: 55°   Wind: 2mph
Humidity: 82%   Direction: NA
Pressure: 30.06"   Gusts: NA
Location:  36.28°N, 116.43°E
Report Text: ZSJN 260000Z VRB01MPS 2200 BR NSC 16/13 Q1018 NOSIG
Loading
Personal Weather Stations






























Interactive Weather Map
Tropical Storm Tracking
New forecast layout! Learn more

10-Day Weather Forecast

Advertisements
Track Severe Weather on mobile